sensor_id;sensor_type;location;lat;lon;timestamp;temperature;humidity
60027;DHT22;45891;53.006;6.512;2023-03-20T00:00:16;7.50;99.90
60027;DHT22;45891;53.006;6.512;2023-03-20T00:02:43;7.60;99.90
60027;DHT22;45891;53.006;6.512;2023-03-20T00:05:17;7.60;99.90
60027;DHT22;45891;53.006;6.512;2023-03-20T00:07:44;7.60;99.90
60027;DHT22;45891;53.006;6.512;2023-03-20T00:10:10;7.60;99.90
60027;DHT22;45891;53.006;6.512;2023-03-20T00:12:36;7.60;99.90
60027;DHT22;45891;53.006;6.512;2023-03-20T00:15:02;7.60;99.90
60027;DHT22;45891;53.006;6.512;2023-03-20T00:17:29;7.60;99.90
60027;DHT22;45891;53.006;6.512;2023-03-20T00:19:55;7.60;99.90
60027;DHT22;45891;53.006;6.512;2023-03-20T00:22:21;7.60;99.90
60027;DHT22;45891;53.006;6.512;2023-03-20T00:24:47;7.60;99.90
60027;DHT22;45891;53.006;6.512;2023-03-20T00:27:14;7.60;99.90
60027;DHT22;45891;53.006;6.512;2023-03-20T00:29:40;7.60;99.90
60027;DHT22;45891;53.006;6.512;2023-03-20T00:32:09;7.70;99.90
60027;DHT22;45891;53.006;6.512;2023-03-20T00:34:38;7.70;99.90
60027;DHT22;45891;53.006;6.512;2023-03-20T00:37:05;7.70;99.90
60027;DHT22;45891;53.006;6.512;2023-03-20T00:39:31;7.70;99.90
60027;DHT22;45891;53.006;6.512;2023-03-20T00:42:01;7.70;99.90
60027;DHT22;45891;53.006;6.512;2023-03-20T00:44:31;7.70;99.90
60027;DHT22;45891;53.006;6.512;2023-03-20T00:46:58;7.70;99.90
60027;DHT22;45891;53.006;6.512;2023-03-20T00:49:26;7.70;99.90
60027;DHT22;45891;53.006;6.512;2023-03-20T00:51:53;7.70;99.90
60027;DHT22;45891;53.006;6.512;2023-03-20T00:54:22;7.70;99.90
60027;DHT22;45891;53.006;6.512;2023-03-20T00:56:53;7.70;99.90
60027;DHT22;45891;53.006;6.512;2023-03-20T00:59:21;7.70;99.90
60027;DHT22;45891;53.006;6.512;2023-03-20T01:01:49;7.80;99.90
60027;DHT22;45891;53.006;6.512;2023-03-20T01:04:16;7.80;99.90
60027;DHT22;45891;53.006;6.512;2023-03-20T01:06:43;7.70;99.90
60027;DHT22;45891;53.006;6.512;2023-03-20T01:09:09;7.70;99.90
60027;DHT22;45891;53.006;6.512;2023-03-20T01:11:36;7.70;99.90
60027;DHT22;45891;53.006;6.512;2023-03-20T01:14:03;7.80;99.90
60027;DHT22;45891;53.006;6.512;2023-03-20T01:16:29;7.80;99.90
60027;DHT22;45891;53.006;6.512;2023-03-20T01:18:57;7.80;99.90
60027;DHT22;45891;53.006;6.512;2023-03-20T01:21:24;7.80;99.90
60027;DHT22;45891;53.006;6.512;2023-03-20T01:23:50;7.70;99.90
60027;DHT22;45891;53.006;6.512;2023-03-20T01:28:45;7.80;99.90
60027;DHT22;45891;53.006;6.512;2023-03-20T01:31:13;7.80;99.90
60027;DHT22;45891;53.006;6.512;2023-03-20T01:33:39;7.80;99.90
60027;DHT22;45891;53.006;6.512;2023-03-20T01:36:04;7.80;99.90
60027;DHT22;45891;53.006;6.512;2023-03-20T01:38:31;7.80;99.90
60027;DHT22;45891;53.006;6.512;2023-03-20T01:40:57;7.80;99.90
60027;DHT22;45891;53.006;6.512;2023-03-20T01:43:26;7.80;99.90
60027;DHT22;45891;53.006;6.512;2023-03-20T01:48:21;7.80;99.90
60027;DHT22;45891;53.006;6.512;2023-03-20T01:50:48;7.80;99.90
60027;DHT22;45891;53.006;6.512;2023-03-20T01:53:19;7.80;99.90
60027;DHT22;45891;53.006;6.512;2023-03-20T01:55:47;7.80;99.90
60027;DHT22;45891;53.006;6.512;2023-03-20T01:58:17;7.80;99.90
60027;DHT22;45891;53.006;6.512;2023-03-20T02:00:44;7.80;99.90
60027;DHT22;45891;53.006;6.512;2023-03-20T02:03:13;7.80;99.90
60027;DHT22;45891;53.006;6.512;2023-03-20T02:05:40;7.80;99.90
60027;DHT22;45891;53.006;6.512;2023-03-20T02:08:18;7.80;99.90
60027;DHT22;45891;53.006;6.512;2023-03-20T02:10:45;7.80;99.90
60027;DHT22;45891;53.006;6.512;2023-03-20T02:13:14;7.80;99.90
60027;DHT22;45891;53.006;6.512;2023-03-20T02:18:25;7.80;99.90
60027;DHT22;45891;53.006;6.512;2023-03-20T02:23:41;7.70;99.90
60027;DHT22;45891;53.006;6.512;2023-03-20T02:29:06;7.70;99.90
60027;DHT22;45891;53.006;6.512;2023-03-20T02:36:48;7.80;99.90
60027;DHT22;45891;53.006;6.512;2023-03-20T02:40:20;7.70;99.90
60027;DHT22;45891;53.006;6.512;2023-03-20T02:45:08;7.70;99.90
60027;DHT22;45891;53.006;6.512;2023-03-20T02:50:08;7.70;99.90
60027;DHT22;45891;53.006;6.512;2023-03-20T02:52:43;7.80;99.90
60027;DHT22;45891;53.006;6.512;2023-03-20T03:00:35;7.70;99.90
60027;DHT22;45891;53.006;6.512;2023-03-20T03:03:17;7.80;99.90
60027;DHT22;45891;53.006;6.512;2023-03-20T03:05:48;7.70;99.90
60027;DHT22;45891;53.006;6.512;2023-03-20T03:08:21;7.70;99.90
60027;DHT22;45891;53.006;6.512;2023-03-20T03:10:50;7.80;99.90
60027;DHT22;45891;53.006;6.512;2023-03-20T03:13:19;7.80;99.90
60027;DHT22;45891;53.006;6.512;2023-03-20T03:15:47;7.80;99.90
60027;DHT22;45891;53.006;6.512;2023-03-20T03:18:18;7.80;99.90
60027;DHT22;45891;53.006;6.512;2023-03-20T03:20:44;7.70;99.90
60027;DHT22;45891;53.006;6.512;2023-03-20T03:23:57;7.70;99.90
60027;DHT22;45891;53.006;6.512;2023-03-20T03:25:57;7.70;99.90
60027;DHT22;45891;53.006;6.512;2023-03-20T03:28:31;7.70;99.90
60027;DHT22;45891;53.006;6.512;2023-03-20T03:31:16;7.80;99.90
60027;DHT22;45891;53.006;6.512;2023-03-20T03:33:44;7.80;99.90
60027;DHT22;45891;53.006;6.512;2023-03-20T03:47:01;7.80;99.90
60027;DHT22;45891;53.006;6.512;2023-03-20T03:49:22;7.80;99.90
60027;DHT22;45891;53.006;6.512;2023-03-20T03:51:49;7.80;99.90
60027;DHT22;45891;53.006;6.512;2023-03-20T03:57:02;7.80;99.90
60027;DHT22;45891;53.006;6.512;2023-03-20T03:59:40;7.80;99.90
60027;DHT22;45891;53.006;6.512;2023-03-20T04:02:07;7.80;99.90
60027;DHT22;45891;53.006;6.512;2023-03-20T04:04:37;7.80;99.90
60027;DHT22;45891;53.006;6.512;2023-03-20T04:07:06;7.80;99.90
60027;DHT22;45891;53.006;6.512;2023-03-20T04:09:32;7.80;99.90
60027;DHT22;45891;53.006;6.512;2023-03-20T04:11:58;7.80;99.90
60027;DHT22;45891;53.006;6.512;2023-03-20T04:14:24;7.80;99.90
60027;DHT22;45891;53.006;6.512;2023-03-20T04:16:50;7.80;99.90
60027;DHT22;45891;53.006;6.512;2023-03-20T04:19:16;7.80;99.90
60027;DHT22;45891;53.006;6.512;2023-03-20T04:21:42;7.80;99.90
60027;DHT22;45891;53.006;6.512;2023-03-20T04:24:08;7.80;99.90
60027;DHT22;45891;53.006;6.512;2023-03-20T04:26:33;7.80;99.90
60027;DHT22;45891;53.006;6.512;2023-03-20T04:28:59;7.80;99.90
60027;DHT22;45891;53.006;6.512;2023-03-20T04:31:31;7.80;99.90
60027;DHT22;45891;53.006;6.512;2023-03-20T04:33:57;7.80;99.90
60027;DHT22;45891;53.006;6.512;2023-03-20T04:36:23;7.80;99.90
60027;DHT22;45891;53.006;6.512;2023-03-20T04:38:49;7.80;99.90
60027;DHT22;45891;53.006;6.512;2023-03-20T04:41:15;7.80;99.90
60027;DHT22;45891;53.006;6.512;2023-03-20T04:43:44;7.80;99.90
60027;DHT22;45891;53.006;6.512;2023-03-20T04:46:10;7.80;99.90
60027;DHT22;45891;53.006;6.512;2023-03-20T04:48:36;7.80;99.90
60027;DHT22;45891;53.006;6.512;2023-03-20T04:51:02;7.80;99.90
60027;DHT22;45891;53.006;6.512;2023-03-20T04:53:28;7.80;99.90
60027;DHT22;45891;53.006;6.512;2023-03-20T04:55:53;7.80;99.90
60027;DHT22;45891;53.006;6.512;2023-03-20T04:58:19;7.80;99.90
60027;DHT22;45891;53.006;6.512;2023-03-20T05:00:45;7.80;99.90
60027;DHT22;45891;53.006;6.512;2023-03-20T05:03:11;7.80;99.90
60027;DHT22;45891;53.006;6.512;2023-03-20T05:05:37;7.80;99.90
60027;DHT22;45891;53.006;6.512;2023-03-20T05:08:04;7.70;99.90
60027;DHT22;45891;53.006;6.512;2023-03-20T05:10:30;7.80;99.90
60027;DHT22;45891;53.006;6.512;2023-03-20T05:12:56;7.70;99.90
60027;DHT22;45891;53.006;6.512;2023-03-20T05:15:25;7.70;99.90
60027;DHT22;45891;53.006;6.512;2023-03-20T05:17:51;7.70;99.90
60027;DHT22;45891;53.006;6.512;2023-03-20T05:20:17;7.70;99.90
60027;DHT22;45891;53.006;6.512;2023-03-20T05:22:43;7.70;99.90
60027;DHT22;45891;53.006;6.512;2023-03-20T05:25:09;7.70;99.90
60027;DHT22;45891;53.006;6.512;2023-03-20T05:27:35;7.80;99.90
60027;DHT22;45891;53.006;6.512;2023-03-20T05:30:01;7.70;99.90
60027;DHT22;45891;53.006;6.512;2023-03-20T05:32:27;7.70;99.90
60027;DHT22;45891;53.006;6.512;2023-03-20T05:34:52;7.70;99.90
60027;DHT22;45891;53.006;6.512;2023-03-20T05:37:18;7.70;99.90
60027;DHT22;45891;53.006;6.512;2023-03-20T05:39:44;7.70;99.90
60027;DHT22;45891;53.006;6.512;2023-03-20T05:42:11;7.70;99.90
60027;DHT22;45891;53.006;6.512;2023-03-20T05:44:36;7.70;99.90
60027;DHT22;45891;53.006;6.512;2023-03-20T05:47:02;7.70;99.90
60027;DHT22;45891;53.006;6.512;2023-03-20T05:49:28;7.70;99.90
60027;DHT22;45891;53.006;6.512;2023-03-20T05:51:54;7.70;99.90
60027;DHT22;45891;53.006;6.512;2023-03-20T05:54:20;7.70;99.90
60027;DHT22;45891;53.006;6.512;2023-03-20T05:56:46;7.70;99.90
60027;DHT22;45891;53.006;6.512;2023-03-20T05:59:12;7.70;99.90
60027;DHT22;45891;53.006;6.512;2023-03-20T06:01:38;7.70;99.90
60027;DHT22;45891;53.006;6.512;2023-03-20T06:04:04;7.70;99.90
60027;DHT22;45891;53.006;6.512;2023-03-20T06:06:30;7.70;99.90
60027;DHT22;45891;53.006;6.512;2023-03-20T06:08:55;7.70;99.90
60027;DHT22;45891;53.006;6.512;2023-03-20T06:11:21;7.70;99.90
60027;DHT22;45891;53.006;6.512;2023-03-20T06:13:47;7.70;99.90
60027;DHT22;45891;53.006;6.512;2023-03-20T06:16:14;7.80;99.90
60027;DHT22;45891;53.006;6.512;2023-03-20T06:18:40;7.80;99.90
60027;DHT22;45891;53.006;6.512;2023-03-20T06:21:06;7.80;99.90
60027;DHT22;45891;53.006;6.512;2023-03-20T06:23:32;7.80;99.90
60027;DHT22;45891;53.006;6.512;2023-03-20T06:25:58;7.80;99.90
60027;DHT22;45891;53.006;6.512;2023-03-20T06:28:24;7.90;99.90
60027;DHT22;45891;53.006;6.512;2023-03-20T06:30:50;7.90;99.90
60027;DHT22;45891;53.006;6.512;2023-03-20T06:33:20;7.90;99.90
60027;DHT22;45891;53.006;6.512;2023-03-20T06:35:46;7.90;99.90
60027;DHT22;45891;53.006;6.512;2023-03-20T06:38:13;7.90;99.90
60027;DHT22;45891;53.006;6.512;2023-03-20T06:40:39;7.90;99.90
60027;DHT22;45891;53.006;6.512;2023-03-20T06:43:06;7.90;99.90
60027;DHT22;45891;53.006;6.512;2023-03-20T06:45:32;7.90;99.90
60027;DHT22;45891;53.006;6.512;2023-03-20T06:47:58;8.00;99.90
60027;DHT22;45891;53.006;6.512;2023-03-20T06:50:24;8.00;99.90
60027;DHT22;45891;53.006;6.512;2023-03-20T06:52:50;8.00;99.90
60027;DHT22;45891;53.006;6.512;2023-03-20T06:55:16;8.10;99.90
60027;DHT22;45891;53.006;6.512;2023-03-20T06:57:43;8.10;99.90
60027;DHT22;45891;53.006;6.512;2023-03-20T07:00:09;8.10;99.90
60027;DHT22;45891;53.006;6.512;2023-03-20T07:02:35;8.10;99.90
60027;DHT22;45891;53.006;6.512;2023-03-20T07:05:01;8.10;99.90
60027;DHT22;45891;53.006;6.512;2023-03-20T07:07:28;8.10;99.90
60027;DHT22;45891;53.006;6.512;2023-03-20T07:09:54;8.10;99.90
60027;DHT22;45891;53.006;6.512;2023-03-20T07:12:20;8.10;99.90
60027;DHT22;45891;53.006;6.512;2023-03-20T07:14:46;8.10;99.90
60027;DHT22;45891;53.006;6.512;2023-03-20T07:17:12;8.10;99.90
60027;DHT22;45891;53.006;6.512;2023-03-20T07:19:37;8.20;99.90
60027;DHT22;45891;53.006;6.512;2023-03-20T07:22:05;8.20;99.90
60027;DHT22;45891;53.006;6.512;2023-03-20T07:24:31;8.20;99.90
60027;DHT22;45891;53.006;6.512;2023-03-20T07:26:57;8.20;99.90
60027;DHT22;45891;53.006;6.512;2023-03-20T07:29:23;8.30;99.90
60027;DHT22;45891;53.006;6.512;2023-03-20T07:31:49;8.30;99.90
60027;DHT22;45891;53.006;6.512;2023-03-20T07:34:15;8.30;99.90
60027;DHT22;45891;53.006;6.512;2023-03-20T07:36:41;8.40;99.90
60027;DHT22;45891;53.006;6.512;2023-03-20T07:39:07;8.40;99.90
60027;DHT22;45891;53.006;6.512;2023-03-20T07:41:33;8.40;99.90
60027;DHT22;45891;53.006;6.512;2023-03-20T07:43:59;8.40;99.90
60027;DHT22;45891;53.006;6.512;2023-03-20T07:46:25;8.50;99.90
60027;DHT22;45891;53.006;6.512;2023-03-20T07:48:51;8.50;99.90
60027;DHT22;45891;53.006;6.512;2023-03-20T07:51:21;8.60;99.90
60027;DHT22;45891;53.006;6.512;2023-03-20T07:53:47;8.70;99.90
60027;DHT22;45891;53.006;6.512;2023-03-20T07:56:12;8.70;99.90
60027;DHT22;45891;53.006;6.512;2023-03-20T07:58:38;8.70;99.90
60027;DHT22;45891;53.006;6.512;2023-03-20T08:01:04;8.70;99.90
60027;DHT22;45891;53.006;6.512;2023-03-20T08:03:30;8.70;99.90
60027;DHT22;45891;53.006;6.512;2023-03-20T08:05:56;8.70;99.90
60027;DHT22;45891;53.006;6.512;2023-03-20T08:08:22;8.70;99.90
60027;DHT22;45891;53.006;6.512;2023-03-20T08:10:48;8.80;99.90
60027;DHT22;45891;53.006;6.512;2023-03-20T08:13:14;8.80;99.90
60027;DHT22;45891;53.006;6.512;2023-03-20T08:15:40;8.90;99.90
60027;DHT22;45891;53.006;6.512;2023-03-20T08:18:06;9.00;99.90
60027;DHT22;45891;53.006;6.512;2023-03-20T08:20:32;9.00;99.90
60027;DHT22;45891;53.006;6.512;2023-03-20T08:22:58;9.00;99.90
60027;DHT22;45891;53.006;6.512;2023-03-20T08:25:24;9.10;99.90
60027;DHT22;45891;53.006;6.512;2023-03-20T08:27:50;9.30;99.90
60027;DHT22;45891;53.006;6.512;2023-03-20T08:30:16;9.30;99.90
60027;DHT22;45891;53.006;6.512;2023-03-20T08:32:41;9.40;99.90
60027;DHT22;45891;53.006;6.512;2023-03-20T08:35:07;9.40;99.90
60027;DHT22;45891;53.006;6.512;2023-03-20T08:37:34;9.60;99.90
60027;DHT22;45891;53.006;6.512;2023-03-20T08:40:00;9.80;99.90
60027;DHT22;45891;53.006;6.512;2023-03-20T08:42:26;9.90;99.90
60027;DHT22;45891;53.006;6.512;2023-03-20T08:44:52;9.80;99.90
60027;DHT22;45891;53.006;6.512;2023-03-20T08:47:18;9.70;99.90
60027;DHT22;45891;53.006;6.512;2023-03-20T08:49:44;9.80;99.90
60027;DHT22;45891;53.006;6.512;2023-03-20T08:52:10;9.70;99.90
60027;DHT22;45891;53.006;6.512;2023-03-20T08:54:36;9.70;99.90
60027;DHT22;45891;53.006;6.512;2023-03-20T08:57:02;9.60;99.90
60027;DHT22;45891;53.006;6.512;2023-03-20T08:59:28;9.70;99.90
60027;DHT22;45891;53.006;6.512;2023-03-20T09:01:54;9.80;99.90
60027;DHT22;45891;53.006;6.512;2023-03-20T09:04:20;9.70;99.90
60027;DHT22;45891;53.006;6.512;2023-03-20T09:06:46;9.80;99.90
60027;DHT22;45891;53.006;6.512;2023-03-20T09:09:12;10.00;99.90
60027;DHT22;45891;53.006;6.512;2023-03-20T09:11:40;10.10;99.90
60027;DHT22;45891;53.006;6.512;2023-03-20T09:14:06;10.30;99.90
60027;DHT22;45891;53.006;6.512;2023-03-20T09:16:32;10.30;99.90
60027;DHT22;45891;53.006;6.512;2023-03-20T09:18:58;10.20;99.90
60027;DHT22;45891;53.006;6.512;2023-03-20T09:21:24;10.40;99.90
60027;DHT22;45891;53.006;6.512;2023-03-20T09:23:50;10.60;99.90
60027;DHT22;45891;53.006;6.512;2023-03-20T09:26:16;10.80;99.90
60027;DHT22;45891;53.006;6.512;2023-03-20T09:28:42;10.80;99.90
60027;DHT22;45891;53.006;6.512;2023-03-20T09:31:07;10.90;99.90
60027;DHT22;45891;53.006;6.512;2023-03-20T09:33:33;11.00;99.90
60027;DHT22;45891;53.006;6.512;2023-03-20T09:35:59;10.90;99.90
60027;DHT22;45891;53.006;6.512;2023-03-20T09:38:25;10.90;99.90
60027;DHT22;45891;53.006;6.512;2023-03-20T09:40:56;10.80;99.90
60027;DHT22;45891;53.006;6.512;2023-03-20T09:43:35;10.80;99.90
60027;DHT22;45891;53.006;6.512;2023-03-20T09:46:10;10.80;99.90
60027;DHT22;45891;53.006;6.512;2023-03-20T09:54:16;10.90;99.90
60027;DHT22;45891;53.006;6.512;2023-03-20T09:56:38;10.90;99.90
60027;DHT22;45891;53.006;6.512;2023-03-20T09:59:04;10.80;99.90
60027;DHT22;45891;53.006;6.512;2023-03-20T10:01:37;10.90;99.90
60027;DHT22;45891;53.006;6.512;2023-03-20T10:04:07;10.80;99.90
60027;DHT22;45891;53.006;6.512;2023-03-20T10:06:33;10.70;99.90
60027;DHT22;45891;53.006;6.512;2023-03-20T10:08:59;10.80;99.90
60027;DHT22;45891;53.006;6.512;2023-03-20T10:21:56;11.10;99.90
60027;DHT22;45891;53.006;6.512;2023-03-20T10:24:27;11.10;99.90
60027;DHT22;45891;53.006;6.512;2023-03-20T10:26:54;11.10;99.90
60027;DHT22;45891;53.006;6.512;2023-03-20T10:29:32;11.10;99.90
60027;DHT22;45891;53.006;6.512;2023-03-20T10:32:14;11.00;99.90
60027;DHT22;45891;53.006;6.512;2023-03-20T10:40:28;10.90;99.90
60027;DHT22;45891;53.006;6.512;2023-03-20T10:42:55;10.70;99.90
60027;DHT22;45891;53.006;6.512;2023-03-20T10:47:55;10.70;99.90
60027;DHT22;45891;53.006;6.512;2023-03-20T10:50:30;10.80;99.90
60027;DHT22;45891;53.006;6.512;2023-03-20T10:52:57;10.80;99.90
60027;DHT22;45891;53.006;6.512;2023-03-20T10:55:27;10.80;99.90
60027;DHT22;45891;53.006;6.512;2023-03-20T10:57:55;10.70;99.90
60027;DHT22;45891;53.006;6.512;2023-03-20T11:00:23;10.70;99.90
60027;DHT22;45891;53.006;6.512;2023-03-20T11:02:50;10.70;99.90
60027;DHT22;45891;53.006;6.512;2023-03-20T11:05:21;10.70;99.90
60027;DHT22;45891;53.006;6.512;2023-03-20T11:07:51;10.60;99.90
60027;DHT22;45891;53.006;6.512;2023-03-20T11:10:25;10.50;99.90
60027;DHT22;45891;53.006;6.512;2023-03-20T11:12:51;10.40;99.90
60027;DHT22;45891;53.006;6.512;2023-03-20T11:15:25;10.40;99.90
60027;DHT22;45891;53.006;6.512;2023-03-20T11:20:17;10.40;99.90
60027;DHT22;45891;53.006;6.512;2023-03-20T11:22:43;10.40;99.90
60027;DHT22;45891;53.006;6.512;2023-03-20T11:25:34;10.40;99.90
60027;DHT22;45891;53.006;6.512;2023-03-20T11:28:17;10.20;99.90
60027;DHT22;45891;53.006;6.512;2023-03-20T11:30:43;10.10;99.90
60027;DHT22;45891;53.006;6.512;2023-03-20T11:33:12;10.00;99.90
60027;DHT22;45891;53.006;6.512;2023-03-20T11:35:39;10.10;99.90
60027;DHT22;45891;53.006;6.512;2023-03-20T11:38:16;10.00;99.90
60027;DHT22;45891;53.006;6.512;2023-03-20T11:40:42;10.00;99.90
60027;DHT22;45891;53.006;6.512;2023-03-20T11:43:10;10.10;99.90
60027;DHT22;45891;53.006;6.512;2023-03-20T11:45:37;10.10;99.90
60027;DHT22;45891;53.006;6.512;2023-03-20T11:48:04;10.10;99.90
60027;DHT22;45891;53.006;6.512;2023-03-20T11:50:34;10.10;99.90
60027;DHT22;45891;53.006;6.512;2023-03-20T11:53:01;10.10;99.90
60027;DHT22;45891;53.006;6.512;2023-03-20T11:55:29;10.10;99.90
60027;DHT22;45891;53.006;6.512;2023-03-20T11:57:56;10.00;99.90
60027;DHT22;45891;53.006;6.512;2023-03-20T12:00:23;10.00;99.90
60027;DHT22;45891;53.006;6.512;2023-03-20T12:02:50;9.90;99.90
60027;DHT22;45891;53.006;6.512;2023-03-20T12:07:45;10.00;99.90
60027;DHT22;45891;53.006;6.512;2023-03-20T12:10:13;10.00;99.90
60027;DHT22;45891;53.006;6.512;2023-03-20T12:12:40;10.00;99.90
60027;DHT22;45891;53.006;6.512;2023-03-20T12:36:17;9.90;99.90
60027;DHT22;45891;53.006;6.512;2023-03-20T12:38:43;9.80;99.90
60027;DHT22;45891;53.006;6.512;2023-03-20T12:41:12;9.80;99.90
60027;DHT22;45891;53.006;6.512;2023-03-20T12:43:45;9.80;99.90
60027;DHT22;45891;53.006;6.512;2023-03-20T12:49:06;9.70;99.90
60027;DHT22;45891;53.006;6.512;2023-03-20T12:54:25;9.80;99.90
60027;DHT22;45891;53.006;6.512;2023-03-20T12:57:05;9.70;99.90
60027;DHT22;45891;53.006;6.512;2023-03-20T13:05:22;9.50;99.90
60027;DHT22;45891;53.006;6.512;2023-03-20T13:10:36;9.50;99.90
60027;DHT22;45891;53.006;6.512;2023-03-20T13:15:46;9.20;99.90
60027;DHT22;45891;53.006;6.512;2023-03-20T13:20:54;9.00;99.90
60027;DHT22;45891;53.006;6.512;2023-03-20T13:26:03;9.00;99.90
60027;DHT22;45891;53.006;6.512;2023-03-20T13:31:15;9.00;99.90
60027;DHT22;45891;53.006;6.512;2023-03-20T13:39:03;8.90;99.90
60027;DHT22;45891;53.006;6.512;2023-03-20T13:41:30;8.90;99.90
60027;DHT22;45891;53.006;6.512;2023-03-20T13:43:59;8.80;99.90
60027;DHT22;45891;53.006;6.512;2023-03-20T13:46:37;8.80;99.90
60027;DHT22;45891;53.006;6.512;2023-03-20T13:49:10;8.70;99.90
60027;DHT22;45891;53.006;6.512;2023-03-20T13:51:40;8.70;99.90
60027;DHT22;45891;53.006;6.512;2023-03-20T14:04:21;8.60;99.90
60027;DHT22;45891;53.006;6.512;2023-03-20T14:06:48;8.50;99.90
60027;DHT22;45891;53.006;6.512;2023-03-20T14:11:53;8.40;99.90
60027;DHT22;45891;53.006;6.512;2023-03-20T14:14:24;8.40;99.90
60027;DHT22;45891;53.006;6.512;2023-03-20T14:19:36;8.40;99.90
60027;DHT22;45891;53.006;6.512;2023-03-20T14:22:02;8.40;99.90
60027;DHT22;45891;53.006;6.512;2023-03-20T14:24:28;8.50;99.90
60027;DHT22;45891;53.006;6.512;2023-03-20T14:26:55;8.50;99.90
60027;DHT22;45891;53.006;6.512;2023-03-20T14:32:04;8.60;99.90
60027;DHT22;45891;53.006;6.512;2023-03-20T14:37:35;8.40;99.90
60027;DHT22;45891;53.006;6.512;2023-03-20T14:40:04;8.40;99.90
60027;DHT22;45891;53.006;6.512;2023-03-20T14:57:42;8.60;99.90
60027;DHT22;45891;53.006;6.512;2023-03-20T15:00:21;8.60;99.90
60027;DHT22;45891;53.006;6.512;2023-03-20T15:02:52;8.50;99.90
60027;DHT22;45891;53.006;6.512;2023-03-20T15:05:22;8.60;99.90
60027;DHT22;45891;53.006;6.512;2023-03-20T15:07:49;8.60;99.90
60027;DHT22;45891;53.006;6.512;2023-03-20T15:10:15;8.60;99.90
60027;DHT22;45891;53.006;6.512;2023-03-20T15:12:44;8.60;99.90
60027;DHT22;45891;53.006;6.512;2023-03-20T15:15:26;8.60;99.90
60027;DHT22;45891;53.006;6.512;2023-03-20T15:17:53;8.60;99.90
60027;DHT22;45891;53.006;6.512;2023-03-20T15:20:23;8.60;99.90
60027;DHT22;45891;53.006;6.512;2023-03-20T15:22:53;8.50;99.90
60027;DHT22;45891;53.006;6.512;2023-03-20T15:25:20;8.70;99.90
60027;DHT22;45891;53.006;6.512;2023-03-20T15:27:46;8.60;99.90
60027;DHT22;45891;53.006;6.512;2023-03-20T15:30:13;8.60;99.90
60027;DHT22;45891;53.006;6.512;2023-03-20T15:32:39;8.60;99.90
60027;DHT22;45891;53.006;6.512;2023-03-20T15:35:11;8.60;99.90
60027;DHT22;45891;53.006;6.512;2023-03-20T15:37:37;8.60;99.90
60027;DHT22;45891;53.006;6.512;2023-03-20T15:40:37;8.70;99.90
60027;DHT22;45891;53.006;6.512;2023-03-20T15:42:56;8.70;99.90
60027;DHT22;45891;53.006;6.512;2023-03-20T15:45:27;8.70;99.90
60027;DHT22;45891;53.006;6.512;2023-03-20T15:48:26;8.60;99.90
60027;DHT22;45891;53.006;6.512;2023-03-20T15:50:48;8.70;99.90
60027;DHT22;45891;53.006;6.512;2023-03-20T15:53:16;8.60;99.90
60027;DHT22;45891;53.006;6.512;2023-03-20T15:55:49;8.60;99.90
60027;DHT22;45891;53.006;6.512;2023-03-20T15:58:16;8.60;99.90
60027;DHT22;45891;53.006;6.512;2023-03-20T16:00:47;8.60;99.90
60027;DHT22;45891;53.006;6.512;2023-03-20T16:03:14;8.60;99.90
60027;DHT22;45891;53.006;6.512;2023-03-20T16:05:43;8.60;99.90
60027;DHT22;45891;53.006;6.512;2023-03-20T16:08:10;8.50;99.90
60027;DHT22;45891;53.006;6.512;2023-03-20T16:10:39;8.50;99.90
60027;DHT22;45891;53.006;6.512;2023-03-20T16:13:05;8.60;99.90
60027;DHT22;45891;53.006;6.512;2023-03-20T16:15:32;8.50;99.90
60027;DHT22;45891;53.006;6.512;2023-03-20T16:17:59;8.60;99.90
60027;DHT22;45891;53.006;6.512;2023-03-20T16:20:27;8.60;99.90
60027;DHT22;45891;53.006;6.512;2023-03-20T16:22:54;8.60;99.90
60027;DHT22;45891;53.006;6.512;2023-03-20T16:25:21;8.60;99.90
60027;DHT22;45891;53.006;6.512;2023-03-20T16:27:49;8.60;99.90
60027;DHT22;45891;53.006;6.512;2023-03-20T16:30:22;8.60;99.90
60027;DHT22;45891;53.006;6.512;2023-03-20T16:32:53;8.60;99.90
60027;DHT22;45891;53.006;6.512;2023-03-20T16:35:20;8.60;99.90
60027;DHT22;45891;53.006;6.512;2023-03-20T16:37:54;8.60;99.90
60027;DHT22;45891;53.006;6.512;2023-03-20T16:42:52;8.60;99.90
60027;DHT22;45891;53.006;6.512;2023-03-20T16:45:25;8.70;99.90
60027;DHT22;45891;53.006;6.512;2023-03-20T16:50:42;8.60;99.90
60027;DHT22;45891;53.006;6.512;2023-03-20T16:53:18;8.60;99.90
60027;DHT22;45891;53.006;6.512;2023-03-20T16:55:45;8.60;99.90
60027;DHT22;45891;53.006;6.512;2023-03-20T16:58:16;8.70;99.90
60027;DHT22;45891;53.006;6.512;2023-03-20T17:00:44;8.60;99.90
60027;DHT22;45891;53.006;6.512;2023-03-20T17:06:25;8.60;99.90
60027;DHT22;45891;53.006;6.512;2023-03-20T17:10:56;8.60;99.90
60027;DHT22;45891;53.006;6.512;2023-03-20T17:13:22;8.60;99.90
60027;DHT22;45891;53.006;6.512;2023-03-20T17:15:48;8.60;99.90
60027;DHT22;45891;53.006;6.512;2023-03-20T17:18:13;8.60;99.90
60027;DHT22;45891;53.006;6.512;2023-03-20T17:20:40;8.60;99.90
60027;DHT22;45891;53.006;6.512;2023-03-20T17:23:11;8.60;99.90
60027;DHT22;45891;53.006;6.512;2023-03-20T17:25:37;8.70;99.90
60027;DHT22;45891;53.006;6.512;2023-03-20T17:28:03;8.70;99.90
60027;DHT22;45891;53.006;6.512;2023-03-20T17:30:29;8.60;99.90
60027;DHT22;45891;53.006;6.512;2023-03-20T17:32:55;8.60;99.90
60027;DHT22;45891;53.006;6.512;2023-03-20T17:35:21;8.60;99.90
60027;DHT22;45891;53.006;6.512;2023-03-20T17:37:47;8.70;99.90
60027;DHT22;45891;53.006;6.512;2023-03-20T17:40:17;8.70;99.90
60027;DHT22;45891;53.006;6.512;2023-03-20T17:42:44;8.70;99.90
60027;DHT22;45891;53.006;6.512;2023-03-20T17:45:14;8.60;99.90
60027;DHT22;45891;53.006;6.512;2023-03-20T17:47:40;8.60;99.90
60027;DHT22;45891;53.006;6.512;2023-03-20T17:50:09;8.60;99.90
60027;DHT22;45891;53.006;6.512;2023-03-20T17:52:41;8.60;99.90
60027;DHT22;45891;53.006;6.512;2023-03-20T17:55:07;8.60;99.90
60027;DHT22;45891;53.006;6.512;2023-03-20T17:57:34;8.60;99.90
60027;DHT22;45891;53.006;6.512;2023-03-20T18:00:01;8.60;99.90
60027;DHT22;45891;53.006;6.512;2023-03-20T18:02:27;8.60;99.90
60027;DHT22;45891;53.006;6.512;2023-03-20T18:04:53;8.60;99.90
60027;DHT22;45891;53.006;6.512;2023-03-20T18:07:19;8.60;99.90
60027;DHT22;45891;53.006;6.512;2023-03-20T18:09:45;8.60;99.90
60027;DHT22;45891;53.006;6.512;2023-03-20T18:12:13;8.60;99.90
60027;DHT22;45891;53.006;6.512;2023-03-20T18:14:39;8.60;99.90
60027;DHT22;45891;53.006;6.512;2023-03-20T18:17:05;8.60;99.90
60027;DHT22;45891;53.006;6.512;2023-03-20T18:19:31;8.60;99.90
60027;DHT22;45891;53.006;6.512;2023-03-20T18:21:57;8.60;99.90
60027;DHT22;45891;53.006;6.512;2023-03-20T18:24:24;8.60;99.90
60027;DHT22;45891;53.006;6.512;2023-03-20T18:26:51;8.60;99.90
60027;DHT22;45891;53.006;6.512;2023-03-20T18:29:17;8.60;99.90
60027;DHT22;45891;53.006;6.512;2023-03-20T18:31:43;8.60;99.90
60027;DHT22;45891;53.006;6.512;2023-03-20T18:34:09;8.60;99.90
60027;DHT22;45891;53.006;6.512;2023-03-20T18:36:35;8.60;99.90